Time;durP1;ratioP1;P1;durP2;ratioP2;P2;SDS_P1;SDS_P2;PMS_P1;PMS_P2;Temp;Humidity;BMP_temperature;BMP_pressure;BME280_temperature;BME280_humidity;BME280_pressure;Samples;Min_cycle;Max_cycle;Signal;HPM_P1;HPM_P2
2021/03/21 00:00:26;;;;;;;2.70;1.08;;;9.30;99.90;;;;;;5044005;28;20437;-75
2021/03/21 00:02:53;;;;;;;2.85;1.10;;;9.30;99.90;;;;;;5043172;28;20460;-75
2021/03/21 00:05:20;;;;;;;3.58;1.10;;;9.30;99.90;;;;;;5043999;28;20425;-74
2021/03/21 00:07:47;;;;;;;1.75;1.00;;;9.30;99.90;;;;;;5042234;28;20504;-75
2021/03/21 00:10:13;;;;;;;4.50;1.00;;;9.30;99.90;;;;;;5042866;28;20437;-74
2021/03/21 00:12:40;;;;;;;2.20;0.98;;;9.20;99.90;;;;;;5043455;28;20902;-74
2021/03/21 00:15:08;;;;;;;2.65;1.05;;;9.20;99.90;;;;;;5041894;28;20474;-74
2021/03/21 00:17:34;;;;;;;2.42;1.00;;;9.20;99.90;;;;;;5042144;28;20623;-75
2021/03/21 00:20:01;;;;;;;2.55;1.00;;;9.10;99.90;;;;;;5044180;28;20429;-75
2021/03/21 00:22:27;;;;;;;1.67;1.00;;;9.10;99.90;;;;;;5044900;28;20428;-73
2021/03/21 00:24:53;;;;;;;4.45;1.50;;;9.10;99.90;;;;;;5029828;28;20866;-75
2021/03/21 00:27:20;;;;;;;2.78;1.17;;;9.10;99.90;;;;;;5047490;28;20425;-75
2021/03/21 00:29:46;;;;;;;2.75;1.20;;;9.10;99.90;;;;;;5046712;28;20428;-75
2021/03/21 00:32:13;;;;;;;4.40;1.30;;;9.10;99.90;;;;;;5047433;28;20798;-74
2021/03/21 00:34:40;;;;;;;2.28;1.15;;;9.10;99.90;;;;;;5047821;28;20931;-75
2021/03/21 00:37:06;;;;;;;2.55;1.40;;;9.00;99.90;;;;;;5046469;28;20436;-75
2021/03/21 00:39:33;;;;;;;3.63;1.80;;;9.10;99.90;;;;;;5046242;28;20836;-75
2021/03/21 00:41:59;;;;;;;3.50;1.67;;;9.10;99.90;;;;;;5029326;28;20424;-74
2021/03/21 00:44:25;;;;;;;4.60;2.17;;;9.10;99.90;;;;;;5028769;28;20435;-74
2021/03/21 00:46:52;;;;;;;2.70;1.83;;;9.10;99.90;;;;;;5047164;28;20934;-75
2021/03/21 00:49:19;;;;;;;4.20;1.80;;;9.10;99.90;;;;;;5046775;28;20429;-75
2021/03/21 00:51:46;;;;;;;3.90;2.30;;;9.10;99.90;;;;;;5027377;28;20425;-75
2021/03/21 00:54:12;;;;;;;4.90;2.43;;;9.10;99.90;;;;;;5045631;28;20854;-76
2021/03/21 00:56:41;;;;;;;4.38;2.20;;;9.10;99.90;;;;;;5045630;28;20491;-75
2021/03/21 00:59:08;;;;;;;4.78;2.65;;;9.10;99.90;;;;;;5047629;28;20428;-74
2021/03/21 01:01:35;;;;;;;4.60;2.70;;;9.10;99.90;;;;;;5045846;28;20438;-76
2021/03/21 01:04:02;;;;;;;5.38;2.90;;;9.10;99.90;;;;;;5029552;28;21579;-75
2021/03/21 01:06:32;;;;;;;6.78;3.30;;;9.10;99.90;;;;;;5045102;28;20479;-75
2021/03/21 01:09:05;;;;;;;7.37;3.53;;;9.20;99.90;;;;;;5045095;28;20421;-74
2021/03/21 01:11:34;;;;;;;6.65;3.85;;;9.20;99.90;;;;;;5028794;28;20444;-74
2021/03/21 01:14:02;;;;;;;8.57;4.60;;;9.20;99.90;;;;;;5045986;28;20450;-74
2021/03/21 01:16:30;;;;;;;8.55;4.93;;;9.20;99.90;;;;;;5029170;28;20429;-75
2021/03/21 01:18:58;;;;;;;7.90;4.80;;;9.20;99.90;;;;;;5045512;28;20460;-74
2021/03/21 01:21:27;;;;;;;8.30;5.20;;;9.30;99.90;;;;;;5042597;28;20782;-75
2021/03/21 01:23:55;;;;;;;9.55;5.55;;;9.30;99.90;;;;;;5045701;28;20421;-75
2021/03/21 01:26:25;;;;;;;10.03;5.77;;;9.30;99.90;;;;;;5043064;28;20968;-75
2021/03/21 01:28:52;;;;;;;10.47;6.67;;;9.30;99.90;;;;;;5047392;28;20421;-76
2021/03/21 01:31:20;;;;;;;10.40;6.70;;;9.30;99.90;;;;;;5045104;28;20427;-74
2021/03/21 01:33:47;;;;;;;14.18;7.47;;;9.30;99.90;;;;;;5045471;28;20434;-74
2021/03/21 01:36:17;;;;;;;11.50;7.43;;;9.30;99.90;;;;;;5043317;28;20886;-74
2021/03/21 01:38:44;;;;;;;12.90;8.13;;;9.30;99.90;;;;;;5046524;28;20894;-74
2021/03/21 01:41:16;;;;;;;14.35;8.55;;;9.40;99.90;;;;;;5045121;28;20436;-75
2021/03/21 01:43:42;;;;;;;12.93;8.45;;;9.40;99.90;;;;;;5029712;28;20449;-75
2021/03/21 01:46:14;;;;;;;16.15;8.70;;;9.40;99.90;;;;;;5039962;28;20833;-75
2021/03/21 01:48:46;;;;;;;17.00;8.88;;;9.30;99.90;;;;;;5044870;28;20928;-75
2021/03/21 01:51:15;;;;;;;15.88;9.07;;;9.30;99.90;;;;;;5044490;28;20916;-76
2021/03/21 01:53:44;;;;;;;16.98;9.90;;;9.30;99.90;;;;;;5045485;28;20436;-75
2021/03/21 01:56:11;;;;;;;16.15;9.27;;;9.30;99.90;;;;;;5044586;28;20483;-75
2021/03/21 01:58:39;;;;;;;16.48;9.63;;;9.30;99.90;;;;;;5045294;28;20917;-75
2021/03/21 02:01:15;;;;;;;19.10;10.68;;;9.30;99.90;;;;;;5025647;28;20483;-76
2021/03/21 02:03:42;;;;;;;16.38;10.13;;;9.30;99.90;;;;;;5045220;28;20437;-74
2021/03/21 02:06:27;;;;;;;20.02;10.68;;;9.40;99.90;;;;;;5044242;28;20437;-75
2021/03/21 02:08:57;;;;;;;19.53;10.90;;;9.40;99.90;;;;;;5043341;28;20436;-74
2021/03/21 02:11:34;;;;;;;19.35;10.98;;;9.40;99.90;;;;;;5045381;28;20421;-74
2021/03/21 02:14:09;;;;;;;23.40;12.00;;;9.40;99.90;;;;;;5042164;28;21194;-75
2021/03/21 02:16:40;;;;;;;21.40;12.03;;;9.40;99.90;;;;;;5043640;28;20450;-75
2021/03/21 02:19:21;;;;;;;23.02;13.05;;;9.40;99.90;;;;;;5043571;28;21312;-74
2021/03/21 02:21:54;;;;;;;23.17;13.37;;;9.40;99.90;;;;;;5025441;28;20425;-75
2021/03/21 02:25:01;;;;;;;22.17;13.35;;;9.40;99.90;;;;;;5024470;28;20504;-75
2021/03/21 02:27:53;;;;;;;29.70;15.20;;;9.40;99.90;;;;;;5043645;28;20432;-74
2021/03/21 02:30:25;;;;;;;28.52;15.50;;;9.50;99.90;;;;;;5043056;28;21117;-76
2021/03/21 02:32:58;;;;;;;28.52;16.17;;;9.40;99.90;;;;;;5041977;28;20439;-75
2021/03/21 02:35:32;;;;;;;26.35;14.85;;;9.50;99.90;;;;;;5044707;28;20425;-76
2021/03/21 02:38:05;;;;;;;27.77;15.13;;;9.50;99.90;;;;;;5043544;28;20429;-75
2021/03/21 02:40:36;;;;;;;29.42;15.88;;;9.50;99.90;;;;;;5043310;28;20969;-74
2021/03/21 02:43:08;;;;;;;31.27;16.73;;;9.50;99.90;;;;;;5025985;28;20471;-76
2021/03/21 02:45:38;;;;;;;28.63;16.50;;;9.60;99.90;;;;;;5042821;28;20775;-75
2021/03/21 02:48:09;;;;;;;29.08;16.25;;;9.60;99.90;;;;;;5044322;28;20902;-75
2021/03/21 02:50:41;;;;;;;31.42;16.73;;;9.60;99.90;;;;;;5043982;28;20925;-75
2021/03/21 02:53:15;;;;;;;32.55;17.73;;;9.60;99.90;;;;;;5044558;28;20486;-75
2021/03/21 02:55:45;;;;;;;35.97;19.27;;;9.70;99.90;;;;;;5045084;28;20424;-74
2021/03/21 02:58:16;;;;;;;33.63;18.38;;;9.70;99.90;;;;;;5044405;28;20433;-75
2021/03/21 03:00:47;;;;;;;32.70;17.80;;;9.70;99.90;;;;;;5041191;28;20905;-74
2021/03/21 03:03:16;;;;;;;32.15;16.40;;;9.70;99.90;;;;;;5042788;28;20429;-75
2021/03/21 03:05:47;;;;;;;30.07;16.13;;;9.70;99.90;;;;;;5028680;28;20444;-74
2021/03/21 03:08:18;;;;;;;25.08;13.35;;;9.70;99.90;;;;;;5044395;28;20898;-73
2021/03/21 03:10:48;;;;;;;28.23;13.27;;;9.70;99.90;;;;;;5023766;28;20600;-75
2021/03/21 03:13:19;;;;;;;28.17;14.43;;;9.70;99.90;;;;;;5024106;28;20663;-73
2021/03/21 03:15:47;;;;;;;31.05;14.43;;;9.80;99.90;;;;;;5043215;28;20428;-75
2021/03/21 03:18:27;;;;;;;24.33;12.00;;;9.80;99.90;;;;;;5043654;28;20431;-74
2021/03/21 03:21:01;;;;;;;22.98;10.00;;;9.80;99.90;;;;;;5042695;28;20441;-74
2021/03/21 03:23:34;;;;;;;18.43;8.27;;;9.80;99.90;;;;;;5042809;28;20825;-74
2021/03/21 03:26:06;;;;;;;15.23;6.90;;;9.80;99.90;;;;;;5027439;28;20943;-74
2021/03/21 03:28:37;;;;;;;20.30;6.43;;;9.80;99.90;;;;;;5044921;28;20439;-74
2021/03/21 03:31:11;;;;;;;15.18;5.72;;;9.80;99.90;;;;;;5043022;28;20428;-75
2021/03/21 03:33:39;;;;;;;19.45;6.40;;;9.70;99.90;;;;;;5044960;28;20515;-74
2021/03/21 03:36:07;;;;;;;13.90;5.45;;;9.70;99.90;;;;;;5040451;28;20434;-73
2021/03/21 03:38:34;;;;;;;20.65;5.50;;;9.70;99.90;;;;;;5045328;28;20451;-73
2021/03/21 03:41:07;;;;;;;13.80;4.60;;;9.70;99.90;;;;;;5043133;28;20433;-74
2021/03/21 03:43:44;;;;;;;10.77;3.92;;;9.80;99.90;;;;;;5045675;28;20425;-73
2021/03/21 03:46:17;;;;;;;17.00;4.90;;;9.80;99.90;;;;;;5045249;28;20442;-76
2021/03/21 03:48:52;;;;;;;12.10;3.95;;;9.80;99.90;;;;;;5045685;28;20447;-75
2021/03/21 03:51:27;;;;;;;12.00;3.90;;;9.80;99.90;;;;;;5025303;28;20440;-75
2021/03/21 03:54:08;;;;;;;11.63;3.40;;;9.80;99.90;;;;;;5043690;28;20813;-76
2021/03/21 03:56:47;;;;;;;13.60;3.10;;;9.90;99.90;;;;;;5048079;28;20827;-75
2021/03/21 03:59:33;;;;;;;11.07;3.07;;;9.90;99.60;;;;;;5046138;28;20439;-75
2021/03/21 04:02:06;;;;;;;9.48;2.42;;;9.80;98.90;;;;;;5047533;28;20439;-75
2021/03/21 04:04:40;;;;;;;13.52;2.50;;;9.80;98.40;;;;;;5049302;28;20820;-75
2021/03/21 04:07:16;;;;;;;10.90;2.80;;;9.80;98.20;;;;;;5046023;28;20775;-75
2021/03/21 04:09:50;;;;;;;15.43;3.08;;;9.80;98.10;;;;;;5047219;28;20417;-75
2021/03/21 04:12:23;;;;;;;12.73;3.20;;;9.80;98.00;;;;;;5043292;28;21342;-75
2021/03/21 04:14:55;;;;;;;14.05;2.63;;;9.80;98.00;;;;;;5046080;28;20429;-75
2021/03/21 04:17:27;;;;;;;11.70;2.65;;;9.80;98.10;;;;;;5045795;28;20446;-75
2021/03/21 04:19:57;;;;;;;14.37;2.90;;;9.80;98.10;;;;;;5030005;28;20939;-75
2021/03/21 04:22:26;;;;;;;12.98;2.60;;;9.90;98.10;;;;;;5029129;28;20429;-75
2021/03/21 04:24:59;;;;;;;15.82;2.72;;;9.90;98.00;;;;;;5048579;28;20436;-75
2021/03/21 04:27:28;;;;;;;15.23;3.00;;;9.90;97.50;;;;;;5046775;28;20437;-75
2021/03/21 04:30:00;;;;;;;13.73;2.80;;;9.80;97.30;;;;;;5047898;28;20437;-75
2021/03/21 04:32:34;;;;;;;11.67;2.60;;;9.90;97.30;;;;;;5045168;28;21012;-76
2021/03/21 04:35:04;;;;;;;17.63;2.35;;;9.90;97.30;;;;;;5030210;28;20436;-74
2021/03/21 04:37:32;;;;;;;15.30;2.67;;;9.90;97.00;;;;;;5028988;28;20797;-75
2021/03/21 04:40:00;;;;;;;15.07;2.60;;;9.80;96.90;;;;;;5029787;28;21271;-73
2021/03/21 04:42:31;;;;;;;10.95;2.40;;;9.90;96.90;;;;;;5042868;28;20429;-74
2021/03/21 04:45:02;;;;;;;13.48;2.55;;;9.90;96.90;;;;;;5026758;28;20429;-73
2021/03/21 04:47:34;;;;;;;15.35;2.92;;;9.90;97.20;;;;;;5040690;28;20433;-74
2021/03/21 04:50:01;;;;;;;14.55;2.97;;;9.90;97.50;;;;;;5028515;28;20517;-75
2021/03/21 04:52:37;;;;;;;18.67;3.15;;;9.90;97.50;;;;;;5045104;28;20436;-73
2021/03/21 04:55:09;;;;;;;16.05;3.30;;;9.90;97.50;;;;;;5044826;28;20436;-74
2021/03/21 04:57:40;;;;;;;18.13;3.47;;;10.00;97.50;;;;;;5044466;28;20439;-74
2021/03/21 05:00:09;;;;;;;14.45;3.20;;;9.90;97.50;;;;;;5029660;28;20463;-74
2021/03/21 05:02:37;;;;;;;13.73;3.00;;;9.90;97.70;;;;;;5043434;28;20881;-74
2021/03/21 05:05:10;;;;;;;17.02;3.17;;;10.00;97.90;;;;;;5028634;28;20435;-73
2021/03/21 05:07:44;;;;;;;18.90;3.50;;;9.90;97.90;;;;;;5045195;28;20433;-74
2021/03/21 05:10:16;;;;;;;16.80;3.53;;;10.00;97.90;;;;;;5045558;28;20429;-75
2021/03/21 05:12:46;;;;;;;17.95;3.75;;;10.00;98.10;;;;;;5027131;28;20505;-74
2021/03/21 05:15:21;;;;;;;19.05;3.90;;;9.90;98.30;;;;;;5045809;28;20533;-74
2021/03/21 05:17:59;;;;;;;18.23;4.20;;;9.90;98.20;;;;;;5042000;28;20429;-74
2021/03/21 05:20:34;;;;;;;23.10;4.20;;;9.90;98.50;;;;;;5047010;28;20951;-74
2021/03/21 05:23:17;;;;;;;16.70;3.78;;;9.90;98.70;;;;;;5044126;28;21268;-75
2021/03/21 05:26:07;;;;;;;21.63;4.40;;;9.90;98.50;;;;;;5026407;28;20425;-74
2021/03/21 05:28:48;;;;;;;21.88;4.18;;;9.90;98.10;;;;;;5044841;28;20427;-74
2021/03/21 05:31:15;;;;;;;21.75;4.32;;;9.90;98.10;;;;;;5044032;28;20421;-73
2021/03/21 05:33:54;;;;;;;24.30;4.43;;;9.90;98.10;;;;;;5044318;28;20951;-75
2021/03/21 05:36:36;;;;;;;18.92;3.55;;;9.90;98.30;;;;;;5035340;28;20484;-75
2021/03/21 05:39:18;;;;;;;22.08;4.22;;;9.90;98.00;;;;;;5025693;28;20462;-75
2021/03/21 05:42:37;;;;;;;19.60;3.70;;;9.90;97.90;;;;;;5044540;28;20442;-75
2021/03/21 05:45:37;;;;;;;20.75;3.58;;;9.90;97.40;;;;;;5041339;28;20454;-74
2021/03/21 05:48:33;;;;;;;21.55;3.65;;;9.80;97.40;;;;;;5027569;28;20440;-74
2021/03/21 05:51:44;;;;;;;19.48;3.53;;;9.80;97.20;;;;;;5045585;28;22320;-74
2021/03/21 05:54:38;;;;;;;20.58;3.60;;;9.90;96.90;;;;;;5043235;28;20425;-74
2021/03/21 05:57:48;;;;;;;19.42;3.55;;;9.90;96.60;;;;;;5025667;28;20432;-74
2021/03/21 06:00:51;;;;;;;18.67;3.10;;;9.90;96.50;;;;;;5025042;28;20466;-74
2021/03/21 06:03:50;;;;;;;18.07;2.67;;;9.90;95.60;;;;;;5022225;28;20433;-77
2021/03/21 06:06:53;;;;;;;16.17;3.25;;;9.90;95.20;;;;;;5045970;28;20439;-75
2021/03/21 06:09:32;;;;;;;20.15;3.00;;;9.90;95.20;;;;;;5031920;28;20482;-75
2021/03/21 06:12:12;;;;;;;19.83;3.30;;;9.90;95.10;;;;;;5022950;28;20423;-75
2021/03/21 06:15:20;;;;;;;21.47;3.33;;;9.90;94.90;;;;;;5044938;28;20910;-75
2021/03/21 06:18:18;;;;;;;22.58;3.10;;;9.90;95.00;;;;;;5023282;28;20428;-75
2021/03/21 06:21:15;;;;;;;18.38;3.03;;;9.90;94.90;;;;;;5040557;28;20845;-76
2021/03/21 06:24:00;;;;;;;20.90;3.50;;;10.00;95.20;;;;;;5044318;28;20432;-76
2021/03/21 06:26:33;;;;;;;23.13;3.10;;;10.00;94.90;;;;;;5045224;28;20439;-76
2021/03/21 06:29:34;;;;;;;20.57;3.17;;;10.00;94.50;;;;;;5025577;28;20427;-75
2021/03/21 06:32:24;;;;;;;25.85;3.33;;;10.00;94.30;;;;;;5043541;28;20425;-76
2021/03/21 06:34:58;;;;;;;19.00;3.10;;;10.00;94.30;;;;;;5022051;28;20790;-75
2021/03/21 06:38:00;;;;;;;23.30;3.42;;;10.00;94.50;;;;;;5044647;28;20433;-75
2021/03/21 06:40:49;;;;;;;20.80;3.03;;;10.00;94.70;;;;;;5023801;28;20429;-76
2021/03/21 06:43:44;;;;;;;21.08;2.92;;;10.00;93.90;;;;;;5042919;28;20935;-76
2021/03/21 06:46:38;;;;;;;21.02;3.25;;;10.00;93.60;;;;;;5044562;28;20457;-76
2021/03/21 06:49:20;;;;;;;21.33;3.38;;;10.00;93.70;;;;;;5044231;28;20433;-76
2021/03/21 06:51:56;;;;;;;20.98;3.40;;;10.00;94.00;;;;;;5044564;28;20517;-76
2021/03/21 06:54:32;;;;;;;19.20;3.47;;;10.00;93.90;;;;;;5044771;28;20520;-74
2021/03/21 06:57:50;;;;;;;23.42;3.60;;;10.00;93.70;;;;;;5043603;28;20474;-76
2021/03/21 07:00:48;;;;;;;20.50;3.78;;;10.00;93.60;;;;;;5039639;28;20470;-77
2021/03/21 07:03:57;;;;;;;23.02;3.42;;;10.10;93.80;;;;;;5026183;28;20452;-76
2021/03/21 07:07:01;;;;;;;19.92;3.10;;;10.00;93.40;;;;;;5022437;28;20427;-75
2021/03/21 07:10:12;;;;;;;16.67;3.15;;;10.00;93.00;;;;;;5043299;28;20488;-76
2021/03/21 07:13:12;;;;;;;20.67;3.17;;;10.00;92.70;;;;;;5046376;28;20429;-74
2021/03/21 07:15:53;;;;;;;20.20;3.15;;;10.00;92.60;;;;;;5048014;28;20850;-74
2021/03/21 07:18:52;;;;;;;22.63;3.28;;;10.00;92.60;;;;;;5045755;28;20809;-74
2021/03/21 07:22:08;;;;;;;22.50;3.63;;;9.90;92.60;;;;;;5046543;28;20940;-76
2021/03/21 07:24:57;;;;;;;20.45;3.50;;;9.90;92.90;;;;;;5018735;28;20433;-73
2021/03/21 07:27:41;;;;;;;20.05;3.25;;;10.00;92.80;;;;;;5047529;28;20436;-75
2021/03/21 07:30:12;;;;;;;19.27;3.50;;;9.90;93.00;;;;;;5027340;28;20437;-75
2021/03/21 07:33:26;;;;;;;20.08;3.50;;;10.00;92.90;;;;;;5051617;28;20429;-79
2021/03/21 07:36:14;;;;;;;21.90;3.42;;;10.00;91.60;;;;;;5051508;28;20746;-74
2021/03/21 07:39:11;;;;;;;21.45;2.92;;;10.00;90.50;;;;;;5050478;28;20897;-74
2021/03/21 07:41:56;;;;;;;18.20;3.08;;;10.00;90.00;;;;;;5051162;28;20431;-76
2021/03/21 07:44:44;;;;;;;16.27;3.28;;;10.00;88.60;;;;;;5050127;28;20440;-76
2021/03/21 07:47:31;;;;;;;22.00;2.80;;;10.10;88.40;;;;;;5050248;28;20523;-75
2021/03/21 07:50:20;;;;;;;27.88;3.20;;;10.10;88.80;;;;;;5028536;28;20504;-75
2021/03/21 07:52:53;;;;;;;18.67;3.40;;;10.10;87.40;;;;;;5032404;28;20457;-74
2021/03/21 07:55:27;;;;;;;19.33;3.38;;;10.20;87.20;;;;;;5030293;28;20418;-74
2021/03/21 07:58:07;;;;;;;24.33;3.40;;;10.20;87.60;;;;;;5028275;28;20427;-74
2021/03/21 08:00:33;;;;;;;23.40;3.92;;;10.30;87.90;;;;;;5027556;28;20427;-74
2021/03/21 08:03:22;;;;;;;22.37;3.70;;;10.30;88.50;;;;;;5049726;28;20512;-78
2021/03/21 08:05:51;;;;;;;23.80;3.83;;;10.30;88.70;;;;;;5029938;28;20441;-76
2021/03/21 08:08:23;;;;;;;25.42;4.05;;;10.30;89.20;;;;;;5050293;28;21145;-74
2021/03/21 08:10:53;;;;;;;28.00;4.05;;;10.30;89.40;;;;;;5038059;28;20417;-74
2021/03/21 08:13:28;;;;;;;28.70;5.47;;;10.40;90.00;;;;;;5050479;28;20420;-77
2021/03/21 08:15:55;;;;;;;26.35;4.10;;;10.40;90.20;;;;;;5051379;28;20409;-77
2021/03/21 08:18:27;;;;;;;28.30;4.57;;;10.40;90.20;;;;;;5049355;28;20465;-75
2021/03/21 08:20:56;;;;;;;26.40;4.32;;;10.40;90.10;;;;;;5049875;28;20425;-76
2021/03/21 08:23:26;;;;;;;26.73;4.30;;;10.40;90.10;;;;;;5032430;28;20420;-77
2021/03/21 08:25:55;;;;;;;27.83;4.45;;;10.50;89.90;;;;;;5050797;28;20781;-77
2021/03/21 08:28:24;;;;;;;28.50;4.50;;;10.50;90.00;;;;;;5032313;28;20762;-76
2021/03/21 08:30:53;;;;;;;31.37;4.70;;;10.50;90.00;;;;;;5049798;28;20428;-77
2021/03/21 08:33:31;;;;;;;32.28;4.60;;;10.50;90.00;;;;;;5050298;28;20443;-75
2021/03/21 08:36:17;;;;;;;32.22;5.05;;;10.50;90.10;;;;;;5050358;28;20417;-75
2021/03/21 08:38:56;;;;;;;34.97;4.68;;;10.50;90.10;;;;;;5050121;28;20478;-77
2021/03/21 08:41:24;;;;;;;33.63;5.32;;;10.60;90.10;;;;;;5031839;28;20517;-76
2021/03/21 08:43:59;;;;;;;34.20;5.38;;;10.50;90.20;;;;;;5032249;28;20421;-77
2021/03/21 08:46:25;;;;;;;31.25;5.10;;;10.50;89.00;;;;;;5049176;28;20421;-75
2021/03/21 08:49:04;;;;;;;32.65;4.72;;;10.50;87.70;;;;;;5048839;28;20908;-73
2021/03/21 08:51:36;;;;;;;32.08;5.97;;;10.50;86.40;;;;;;5049895;28;20809;-73
2021/03/21 08:54:11;;;;;;;32.33;4.72;;;10.40;85.50;;;;;;5050036;28;20504;-76
2021/03/21 08:56:39;;;;;;;29.33;4.55;;;10.40;84.60;;;;;;5048910;28;20439;-76
2021/03/21 08:59:27;;;;;;;27.70;4.50;;;10.40;82.60;;;;;;5030688;28;20433;-75
2021/03/21 09:02:08;;;;;;;30.00;4.82;;;10.40;82.00;;;;;;5031473;28;20429;-76
2021/03/21 09:04:39;;;;;;;28.27;4.60;;;10.40;82.20;;;;;;5022756;28;20428;-76
2021/03/21 09:07:18;;;;;;;30.77;4.57;;;10.40;81.90;;;;;;5050913;28;20420;-77
2021/03/21 09:09:45;;;;;;;32.80;5.18;;;10.40;81.60;;;;;;5046203;28;20429;-75
2021/03/21 09:12:30;;;;;;;29.00;4.93;;;10.40;81.10;;;;;;5049354;28;20984;-76
2021/03/21 09:15:29;;;;;;;30.38;4.65;;;10.50;80.80;;;;;;5049510;28;20436;-76
2021/03/21 09:18:22;;;;;;;28.90;4.68;;;10.50;81.30;;;;;;5030588;28;20433;-76
2021/03/21 09:21:15;;;;;;;34.97;5.20;;;10.60;81.60;;;;;;5030356;28;20432;-78
2021/03/21 09:23:45;;;;;;;32.50;5.35;;;10.60;82.40;;;;;;5048278;28;20417;-75
2021/03/21 09:26:32;;;;;;;33.05;4.80;;;10.70;81.90;;;;;;5044759;28;20793;-77
2021/03/21 09:29:02;;;;;;;32.03;5.20;;;10.70;80.30;;;;;;5048547;28;20464;-77
2021/03/21 09:31:29;;;;;;;27.50;4.40;;;10.70;79.30;;;;;;5049226;28;20421;-78
2021/03/21 09:34:01;;;;;;;29.67;4.57;;;10.80;78.60;;;;;;5048665;28;20436;-76
2021/03/21 09:36:35;;;;;;;32.33;5.03;;;10.80;78.90;;;;;;5030845;28;20460;-75
2021/03/21 09:39:10;;;;;;;34.15;5.78;;;10.80;78.30;;;;;;5047681;28;20940;-76
2021/03/21 09:41:36;;;;;;;31.15;5.18;;;10.80;78.30;;;;;;5045507;28;20433;-77
2021/03/21 09:44:05;;;;;;;31.98;4.70;;;10.80;78.70;;;;;;5028903;28;20417;-75
2021/03/21 09:46:46;;;;;;;28.10;5.13;;;10.70;79.00;;;;;;5043138;28;20425;-75
2021/03/21 09:49:20;;;;;;;31.10;5.05;;;10.80;79.10;;;;;;5044317;28;20432;-73
2021/03/21 09:51:51;;;;;;;30.30;5.00;;;10.80;78.40;;;;;;5042802;28;20425;-74
2021/03/21 09:54:29;;;;;;;32.97;5.35;;;10.80;79.00;;;;;;5041703;28;20452;-75
2021/03/21 09:57:05;;;;;;;26.65;4.75;;;10.80;78.20;;;;;;5030481;28;20429;-75
2021/03/21 09:59:52;;;;;;;30.95;5.30;;;10.80;77.10;;;;;;5040194;28;20428;-75
2021/03/21 10:02:26;;;;;;;28.98;5.00;;;10.90;77.20;;;;;;5028997;28;20421;-75
2021/03/21 10:04:58;;;;;;;33.07;5.57;;;10.90;76.80;;;;;;5043511;28;20538;-74
2021/03/21 10:07:36;;;;;;;30.15;4.93;;;11.00;77.10;;;;;;5046972;28;20435;-74
2021/03/21 10:10:08;;;;;;;27.88;5.25;;;11.10;76.50;;;;;;5046363;28;20437;-76
2021/03/21 10:12:40;;;;;;;31.85;5.38;;;11.10;75.60;;;;;;5028665;28;20947;-75
2021/03/21 10:15:11;;;;;;;30.27;5.28;;;11.20;74.90;;;;;;5043290;28;20425;-75
2021/03/21 10:17:55;;;;;;;34.83;5.50;;;11.20;74.90;;;;;;5046811;28;20429;-76
2021/03/21 10:21:00;;;;;;;29.27;4.88;;;11.20;74.80;;;;;;5046582;28;20417;-75
2021/03/21 10:24:14;;;;;;;32.10;5.53;;;11.30;73.90;;;;;;5022485;28;20437;-77
2021/03/21 10:27:29;;;;;;;38.45;5.18;;;11.30;73.80;;;;;;5046231;28;20463;-73
2021/03/21 10:30:16;;;;;;;27.30;5.25;;;11.20;73.70;;;;;;5026494;28;22006;-75
2021/03/21 10:32:44;;;;;;;34.58;5.40;;;11.20;74.40;;;;;;5045055;28;20432;-75
2021/03/21 10:35:30;;;;;;;27.45;5.72;;;11.20;73.80;;;;;;5045509;28;20481;-74
2021/03/21 10:37:59;;;;;;;33.67;5.97;;;11.20;73.50;;;;;;5042968;28;20468;-74
2021/03/21 10:40:44;;;;;;;29.95;4.60;;;11.20;72.80;;;;;;5046008;28;20797;-75
2021/03/21 10:43:46;;;;;;;32.90;5.30;;;11.30;72.80;;;;;;5043965;28;20481;-75
2021/03/21 10:46:47;;;;;;;33.85;4.97;;;11.40;73.20;;;;;;5045036;28;20433;-74
2021/03/21 10:49:50;;;;;;;24.02;4.88;;;11.50;73.60;;;;;;5045116;28;20531;-75
2021/03/21 10:52:25;;;;;;;30.55;5.10;;;11.60;73.00;;;;;;5044218;28;20924;-74
2021/03/21 10:55:29;;;;;;;30.80;5.28;;;11.60;72.20;;;;;;5044495;28;20442;-73
2021/03/21 10:57:59;;;;;;;30.63;5.00;;;11.70;71.60;;;;;;5043291;28;20433;-75
2021/03/21 11:00:26;;;;;;;29.63;4.50;;;11.60;71.60;;;;;;5025375;28;20820;-76
2021/03/21 11:03:15;;;;;;;28.88;4.82;;;11.70;71.50;;;;;;5048175;28;20413;-76
2021/03/21 11:05:44;;;;;;;29.73;4.95;;;11.70;70.40;;;;;;5043203;28;20425;-75
2021/03/21 11:08:18;;;;;;;31.52;5.00;;;11.80;70.20;;;;;;5023847;28;20508;-75
2021/03/21 11:10:49;;;;;;;30.13;4.90;;;11.80;70.30;;;;;;5048753;28;20966;-75
2021/03/21 11:13:16;;;;;;;31.48;5.40;;;11.70;70.90;;;;;;5029704;28;20429;-75
2021/03/21 11:15:45;;;;;;;32.08;5.35;;;11.80;70.90;;;;;;5044615;28;20909;-75
2021/03/21 11:18:24;;;;;;;27.38;4.93;;;11.70;71.00;;;;;;5045217;28;20832;-75
2021/03/21 11:21:02;;;;;;;27.93;5.00;;;11.80;71.30;;;;;;5048203;28;20476;-73
2021/03/21 11:23:29;;;;;;;29.60;4.65;;;11.80;70.90;;;;;;5047781;28;20425;-74
2021/03/21 11:25:56;;;;;;;30.63;5.78;;;11.70;70.30;;;;;;5047697;28;20428;-76
2021/03/21 11:28:36;;;;;;;26.63;5.25;;;11.70;70.30;;;;;;5029296;28;20470;-74
2021/03/21 11:31:04;;;;;;;28.17;4.88;;;11.60;70.80;;;;;;5046500;28;20401;-74
2021/03/21 11:33:39;;;;;;;32.40;5.10;;;11.60;70.30;;;;;;5044047;28;20782;-73
2021/03/21 11:36:20;;;;;;;32.13;4.87;;;11.60;70.50;;;;;;5046283;28;20425;-74
2021/03/21 11:38:48;;;;;;;34.47;5.35;;;11.50;71.30;;;;;;5045885;28;20436;-73
2021/03/21 11:41:24;;;;;;;30.52;5.00;;;11.50;72.00;;;;;;5029439;28;20428;-73
2021/03/21 11:43:51;;;;;;;31.70;5.32;;;11.50;72.40;;;;;;5044786;28;20726;-74
2021/03/21 11:46:28;;;;;;;30.45;5.25;;;11.40;72.20;;;;;;5047414;28;20797;-74
2021/03/21 11:48:58;;;;;;;31.42;4.78;;;11.40;71.80;;;;;;5031088;28;20412;-73
2021/03/21 11:51:25;;;;;;;27.52;4.72;;;11.40;71.00;;;;;;5047364;28;20413;-73
2021/03/21 11:53:52;;;;;;;29.20;5.10;;;11.40;70.90;;;;;;5047268;28;20425;-73
2021/03/21 11:56:23;;;;;;;29.13;5.10;;;11.50;71.10;;;;;;5047594;28;20417;-75
2021/03/21 11:58:54;;;;;;;29.92;4.70;;;11.50;71.30;;;;;;5023680;28;20415;-75
2021/03/21 12:01:30;;;;;;;27.15;4.50;;;11.60;70.80;;;;;;5045796;28;20417;-75
2021/03/21 12:04:00;;;;;;;31.60;5.07;;;11.60;70.50;;;;;;5024528;28;20486;-75
2021/03/21 12:06:34;;;;;;;31.30;5.15;;;11.70;70.30;;;;;;5025036;28;20984;-75
2021/03/21 12:09:21;;;;;;;28.35;4.60;;;11.70;70.40;;;;;;5045588;28;20958;-74
2021/03/21 12:11:47;;;;;;;29.92;4.88;;;11.80;70.70;;;;;;5046989;28;20743;-76
2021/03/21 12:14:23;;;;;;;29.63;4.95;;;11.80;70.20;;;;;;5027003;28;20421;-77
2021/03/21 12:16:50;;;;;;;29.33;4.57;;;11.80;69.80;;;;;;5034465;28;20432;-75
2021/03/21 12:19:30;;;;;;;25.83;4.50;;;11.70;70.20;;;;;;5045144;28;20899;-76
2021/03/21 12:22:00;;;;;;;32.85;4.88;;;11.70;70.50;;;;;;5041065;28;20504;-75
2021/03/21 12:24:26;;;;;;;30.45;4.97;;;11.70;70.70;;;;;;5031877;28;20425;-75
2021/03/21 12:26:57;;;;;;;27.33;5.00;;;11.60;70.20;;;;;;5050899;28;20925;-77
2021/03/21 12:29:39;;;;;;;31.92;4.72;;;11.60;70.50;;;;;;5024956;28;20422;-77
2021/03/21 12:32:35;;;;;;;32.63;4.97;;;11.60;70.80;;;;;;5032318;28;20428;-75
2021/03/21 12:35:06;;;;;;;26.77;4.80;;;11.50;71.50;;;;;;5049994;28;20421;-76
2021/03/21 12:37:47;;;;;;;28.90;5.10;;;11.50;72.50;;;;;;5049875;28;20425;-76
2021/03/21 12:40:16;;;;;;;32.55;4.97;;;11.50;73.00;;;;;;5050467;28;20464;-75
2021/03/21 12:42:45;;;;;;;27.20;5.07;;;11.50;72.80;;;;;;5050487;28;20466;-75
2021/03/21 12:45:16;;;;;;;32.47;5.40;;;11.50;72.00;;;;;;5050517;28;20420;-74
2021/03/21 12:47:44;;;;;;;32.47;5.00;;;11.40;71.90;;;;;;5049926;28;20440;-76
2021/03/21 12:50:39;;;;;;;28.13;4.93;;;11.40;72.60;;;;;;5050502;28;20471;-74
2021/03/21 12:53:07;;;;;;;31.60;5.70;;;11.50;72.10;;;;;;5031800;28;20836;-75
2021/03/21 12:55:33;;;;;;;32.17;5.20;;;11.40;73.10;;;;;;5050242;28;20448;-75
2021/03/21 12:58:00;;;;;;;30.50;5.20;;;11.50;73.00;;;;;;5027563;28;20430;-74
2021/03/21 13:00:29;;;;;;;27.67;5.00;;;11.50;72.50;;;;;;5030536;28;21220;-75
2021/03/21 13:02:57;;;;;;;27.45;4.93;;;11.50;72.60;;;;;;5049669;28;20514;-74
2021/03/21 13:05:28;;;;;;;27.85;5.00;;;11.40;72.60;;;;;;5031721;28;21042;-75
2021/03/21 13:07:56;;;;;;;29.67;4.97;;;11.40;72.00;;;;;;5048543;28;20435;-75
2021/03/21 13:10:23;;;;;;;30.65;4.82;;;11.40;72.30;;;;;;5050029;28;20409;-75
2021/03/21 13:12:50;;;;;;;33.20;5.00;;;11.40;72.70;;;;;;5050005;28;20420;-75
2021/03/21 13:15:18;;;;;;;27.55;4.97;;;11.40;72.40;;;;;;5026796;28;20429;-74
2021/03/21 13:17:44;;;;;;;32.07;5.10;;;11.30;72.40;;;;;;5048987;28;20840;-75
2021/03/21 13:20:15;;;;;;;33.42;5.65;;;11.30;73.60;;;;;;5049575;28;20463;-76
2021/03/21 13:22:41;;;;;;;30.48;4.90;;;11.30;73.60;;;;;;5029548;28;20427;-75
2021/03/21 13:25:12;;;;;;;29.10;5.20;;;11.30;73.50;;;;;;5039684;28;20417;-76
2021/03/21 13:27:39;;;;;;;32.58;5.00;;;11.30;73.20;;;;;;5030521;28;20506;-76